createdAt,value
2016-02-05T00:00:04.790Z,85.25
2016-02-05T00:01:04.747Z,85.25
2016-02-05T00:02:04.749Z,85.44
2016-02-05T00:03:04.752Z,85.35
2016-02-05T00:04:04.738Z,85.25
2016-02-05T00:05:04.758Z,85.35
2016-02-05T00:06:04.025Z,85.35
2016-02-05T00:07:04.763Z,85.35
2016-02-05T00:08:04.734Z,85.25
2016-02-05T00:09:04.752Z,84.87
2016-02-05T00:10:04.740Z,86.16
2016-02-05T00:11:04.775Z,85.59
2016-02-05T00:12:04.777Z,85.02
2016-02-05T00:13:04.733Z,85.16
2016-02-05T00:14:04.736Z,85.21
2016-02-05T00:15:04.774Z,85.59
2016-02-05T00:16:04.730Z,85.59
2016-02-05T00:17:04.749Z,84.92
2016-02-05T00:18:04.737Z,85.4
2016-02-05T00:19:04.723Z,84.92
2016-02-05T00:20:04.742Z,84.92
2016-02-05T00:21:04.729Z,85.21
2016-02-05T00:22:04.731Z,85.11
2016-02-05T00:23:04.735Z,85.59
2016-02-05T00:24:04.737Z,85.11
2016-02-05T00:25:04.730Z,84.83
2016-02-05T00:26:04.733Z,85.11
2016-02-05T00:27:04.736Z,85.21
2016-02-05T00:28:04.722Z,85.21
2016-02-05T00:29:04.725Z,85.21
2016-02-05T00:30:04.765Z,85.21
2016-02-05T00:31:04.737Z,85.11
2016-02-05T00:32:04.572Z,85.11
2016-02-05T00:33:04.716Z,85.21
2016-02-05T00:34:04.719Z,85.11
2016-02-05T00:35:04.706Z,85.02
2016-02-05T00:36:04.797Z,85.21
2016-02-05T00:37:04.705Z,85.21
2016-02-05T00:38:04.755Z,85.21
2016-02-05T00:39:04.727Z,85.16
2016-02-05T00:40:04.714Z,84.87
2016-02-05T00:41:04.716Z,84.92
2016-02-05T00:42:04.735Z,85.44
2016-02-05T00:43:04.711Z,84.97
2016-02-05T00:44:04.731Z,85.63
2016-02-05T00:45:04.734Z,86.01
2016-02-05T00:46:04.705Z,86.01
2016-02-05T00:47:04.708Z,86.01
2016-02-05T00:48:04.711Z,86.39
2016-02-05T00:49:04.714Z,86.2
2016-02-05T00:50:04.716Z,86.07
2016-02-05T00:51:04.719Z,86.49
2016-02-05T00:52:04.706Z,85.78
2016-02-05T00:53:04.709Z,86.01
2016-02-05T00:54:04.711Z,86.2
2016-02-05T00:55:04.700Z,86.39
2016-02-05T00:56:04.720Z,85.72
2016-02-05T00:57:04.707Z,85.72
2016-02-05T00:58:04.713Z,85.82
2016-02-05T00:59:04.731Z,85.82
2016-02-05T01:00:04.703Z,86.01
2016-02-05T01:01:04.706Z,85.91
2016-02-05T01:02:04.724Z,86.01
2016-02-05T01:03:04.711Z,85.63
2016-02-05T01:04:04.729Z,84.97
2016-02-05T01:05:04.701Z,85.16
2016-02-05T01:06:04.688Z,85.25
2016-02-05T01:07:04.690Z,85.25
2016-02-05T01:08:04.694Z,85.25
2016-02-05T01:09:04.713Z,85.25
2016-02-05T01:10:04.699Z,84.87
2016-02-05T01:11:04.702Z,84.78
2016-02-05T01:12:04.689Z,85.06
2016-02-05T01:13:04.678Z,84.78
2016-02-05T01:14:04.680Z,85.02
2016-02-05T01:15:04.699Z,84.26
2016-02-05T01:16:04.701Z,84.49
2016-02-05T01:17:04.688Z,83.92
2016-02-05T01:18:04.679Z,84.4
2016-02-05T01:19:04.698Z,84.01
2016-02-05T01:20:04.700Z,84.3
2016-02-05T01:21:04.561Z,84.26
2016-02-05T01:22:04.706Z,84.68
2016-02-05T01:23:04.677Z,84.3
2016-02-05T01:24:04.695Z,83.73
2016-02-05T01:25:04.682Z,84.11
2016-02-05T01:26:04.670Z,84.01
2016-02-05T01:27:04.734Z,83.92
2016-02-05T01:28:04.711Z,84.49
2016-02-05T01:29:04.666Z,84.59
2016-02-05T01:30:04.685Z,85.06
2016-02-05T01:31:04.672Z,84.68
2016-02-05T01:32:04.705Z,84.49
2016-02-05T01:33:04.693Z,84.3
2016-02-05T01:34:04.680Z,84.4
2016-02-05T01:35:04.687Z,84.3
2016-02-05T01:36:04.705Z,84.59
2016-02-05T01:37:04.677Z,84.68
2016-02-05T01:38:04.664Z,84.55
2016-02-05T01:39:04.683Z,84.64
2016-02-05T01:40:04.685Z,84.59
2016-02-05T01:41:04.688Z,84.3
2016-02-05T01:42:04.690Z,84.36
2016-02-05T01:43:04.646Z,84.78
2016-02-05T01:44:04.664Z,84.97
2016-02-05T01:45:04.682Z,84.92
2016-02-05T01:46:04.654Z,84.59
2016-02-05T01:47:04.687Z,85.3
2016-02-05T01:48:04.676Z,84.97
2016-02-05T01:49:04.647Z,84.78
2016-02-05T01:50:04.650Z,85.11
2016-02-05T01:51:04.668Z,84.55
2016-02-05T01:52:04.686Z,84.55
2016-02-05T01:53:04.662Z,84.92
2016-02-05T01:54:04.664Z,84.68
2016-02-05T01:55:04.701Z,85.02
2016-02-05T01:56:04.657Z,84.45
2016-02-05T01:57:04.645Z,84.64
2016-02-05T01:58:04.663Z,84.21
2016-02-05T01:59:04.657Z,83.97
2016-02-05T02:00:04.645Z,83.5
2016-02-05T02:01:04.648Z,83.97
2016-02-05T02:02:04.650Z,83.69
2016-02-05T02:03:04.637Z,84.45
2016-02-05T02:04:04.676Z,84.55
2016-02-05T02:05:04.632Z,84.45
2016-02-05T02:06:04.634Z,84.64
2016-02-05T02:07:04.652Z,84.26
2016-02-05T02:08:04.640Z,84.74
2016-02-05T02:09:04.643Z,84.92
2016-02-05T02:10:04.662Z,84.83
2016-02-05T02:11:04.649Z,85.21
2016-02-05T02:12:04.651Z,85.11
2016-02-05T02:13:04.655Z,85.21
2016-02-05T02:14:04.657Z,85.78
2016-02-05T02:15:04.660Z,85.68
2016-02-05T02:16:04.648Z,86.25
2016-02-05T02:17:04.650Z,86.07
2016-02-05T02:18:04.653Z,86.72
2016-02-05T02:19:04.656Z,86.63
2016-02-05T02:20:04.644Z,86.91
2016-02-05T02:21:04.631Z,86.82
2016-02-05T02:22:04.650Z,86.82
2016-02-05T02:23:04.653Z,87.2
2016-02-05T02:24:04.656Z,86.63
2016-02-05T02:25:04.642Z,86.63
2016-02-05T02:26:04.645Z,87.11
2016-02-05T02:27:04.664Z,87.77
2016-02-05T02:28:04.638Z,87.3
2016-02-05T02:29:04.655Z,87.3
2016-02-05T02:30:04.643Z,87.58
2016-02-05T02:31:04.635Z,87.49
2016-02-05T02:32:04.654Z,87.77
2016-02-05T02:33:04.687Z,88.06
2016-02-05T02:34:04.660Z,87.2
2016-02-05T02:35:04.646Z,87.96
2016-02-05T02:36:04.633Z,87.96
2016-02-05T02:37:04.635Z,87.49
2016-02-05T02:38:04.623Z,88.24
2016-02-05T02:39:04.641Z,87.96
2016-02-05T02:40:04.676Z,87.77
2016-02-05T02:41:04.632Z,87.49
2016-02-05T02:42:04.665Z,86.82
2016-02-05T02:43:04.638Z,86.91
2016-02-05T02:44:04.614Z,87.58
2016-02-05T02:45:04.616Z,87.49
2016-02-05T02:46:04.634Z,87.49
2016-02-05T02:47:04.621Z,87.87
2016-02-05T02:48:04.624Z,88.34
2016-02-05T02:49:04.611Z,87.87
2016-02-05T02:50:04.629Z,87.87
2016-02-05T02:51:04.632Z,87.87
2016-02-05T02:52:04.620Z,87.87
2016-02-05T02:53:04.609Z,87.96
2016-02-05T02:54:04.612Z,87.2
2016-02-05T02:55:04.614Z,87.58
2016-02-05T02:56:04.617Z,87.49
2016-02-05T02:57:04.604Z,87.2
2016-02-05T02:58:04.608Z,87.39
2016-02-05T02:59:04.627Z,87.77
2016-02-05T03:00:04.614Z,87.77
2016-02-05T03:01:04.620Z,88.53
2016-02-05T03:02:04.607Z,88.34
2016-02-05T03:03:04.625Z,88.53
2016-02-05T03:04:04.628Z,89.58
2016-02-05T03:05:04.616Z,89.76
2016-02-05T03:06:04.603Z,89.58
2016-02-05T03:07:04.590Z,89.58
2016-02-05T03:08:04.592Z,89.76
2016-02-05T03:09:04.612Z,90.24
2016-02-05T03:10:04.598Z,90.24
2016-02-05T03:11:04.586Z,89.95
2016-02-05T03:12:04.619Z,90.24
2016-02-05T03:13:04.592Z,90.24
2016-02-05T03:14:04.567Z,90.43
2016-02-05T03:15:04.711Z,90.24
2016-02-05T03:16:04.638Z,90.43
2016-02-05T03:17:04.610Z,89.95
2016-02-05T03:18:04.691Z,90.14
2016-02-05T03:19:04.740Z,90.14
2016-02-05T03:20:04.980Z,90.14
2016-02-05T03:21:04.656Z,90.24
2016-02-05T03:22:04.752Z,90.24
2016-02-05T03:23:04.661Z,90.33
2016-02-05T03:24:04.836Z,89.86
2016-02-05T03:25:04.728Z,89.39
2016-02-05T03:26:04.638Z,89.58
2016-02-05T03:27:04.782Z,89.76
2016-02-05T03:28:04.785Z,89.67
2016-02-05T03:29:04.693Z,90.14
2016-02-05T03:30:04.587Z,90.05
2016-02-05T03:31:04.664Z,90.05
2016-02-05T03:32:04.730Z,90.24
2016-02-05T03:33:04.669Z,89.67
2016-02-05T03:34:04.687Z,89.67
2016-02-05T03:35:04.705Z,89.48
2016-02-05T03:36:04.615Z,89.39
2016-02-05T03:37:04.571Z,89.76
2016-02-05T03:38:04.653Z,90.14
2016-02-05T03:39:04.687Z,89.95
2016-02-05T03:40:04.627Z,90.52
2016-02-05T03:41:04.678Z,90.33
2016-02-05T03:42:04.570Z,90.62
2016-02-05T03:43:04.604Z,91
2016-02-05T03:44:04.561Z,91
2016-02-05T03:45:04.547Z,91
2016-02-05T03:46:04.583Z,90.71
2016-02-05T03:47:04.538Z,90.62
2016-02-05T03:48:04.542Z,91.09
2016-02-05T03:49:04.560Z,91.19
2016-02-05T03:50:04.547Z,91.19
2016-02-05T03:51:04.549Z,91.19
2016-02-05T03:52:04.553Z,91.19
2016-02-05T03:53:04.540Z,91.75
2016-02-05T03:54:04.573Z,91.66
2016-02-05T03:55:04.546Z,91.66
2016-02-05T03:56:04.562Z,91.38
2016-02-05T03:57:04.551Z,91.38
2016-02-05T03:58:04.541Z,91.38
2016-02-05T03:59:04.543Z,91.56
2016-02-05T04:00:04.552Z,92.14
2016-02-05T04:01:04.555Z,91.85
2016-02-05T04:02:04.526Z,92.04
2016-02-05T04:03:04.545Z,92.14
2016-02-05T04:04:04.531Z,91.66
2016-02-05T04:05:04.535Z,91.85
2016-02-05T04:06:04.572Z,91.75
2016-02-05T04:07:04.543Z,92.04
2016-02-05T04:08:04.577Z,92.04
2016-02-05T04:09:04.548Z,91.75
2016-02-05T04:10:04.536Z,91.56
2016-02-05T04:11:04.553Z,91.56
2016-02-05T04:12:04.525Z,92.04
2016-02-05T04:13:04.544Z,92.14
2016-02-05T04:14:04.530Z,91.85
2016-02-05T04:15:04.549Z,92.42
2016-02-05T04:16:04.536Z,92.04
2016-02-05T04:17:04.616Z,91.94
2016-02-05T04:18:04.605Z,92.04
2016-02-05T04:19:04.700Z,92.04
2016-02-05T04:20:04.720Z,92.33
2016-02-05T04:21:04.644Z,91.85
2016-02-05T04:22:04.616Z,91.85
2016-02-05T04:23:04.670Z,92.23
2016-02-05T04:24:04.706Z,91.85
2016-02-05T04:25:04.708Z,91.85
2016-02-05T04:26:04.725Z,91.94
2016-02-05T04:27:04.697Z,91.85
2016-02-05T04:28:04.512Z,92.04
2016-02-05T04:29:04.547Z,92.04
2016-02-05T04:30:04.547Z,91.85
2016-02-05T04:31:04.519Z,92.14
2016-02-05T04:32:04.568Z,91.56
2016-02-05T04:33:04.502Z,91.56
2016-02-05T04:34:04.528Z,92.61
2016-02-05T04:35:04.507Z,92.61
2016-02-05T04:36:04.486Z,91.66
2016-02-05T04:37:04.512Z,91.94
2016-02-05T04:38:04.542Z,91.66
2016-02-05T04:39:04.480Z,92.42
2016-02-05T04:40:04.480Z,92.04
2016-02-05T04:41:04.465Z,92.04
2016-02-05T04:42:04.465Z,92.04
2016-02-05T04:43:04.466Z,92.23
2016-02-05T04:44:04.468Z,92.23
2016-02-05T04:45:04.485Z,92.04
2016-02-05T04:46:04.471Z,92.33
2016-02-05T04:47:04.472Z,92.33
2016-02-05T04:48:04.459Z,91.85
2016-02-05T04:49:04.477Z,91.85
2016-02-05T04:50:04.448Z,92.14
2016-02-05T04:51:04.452Z,92.42
2016-02-05T04:52:04.470Z,92.14
2016-02-05T04:53:04.473Z,92.99
2016-02-05T04:54:04.444Z,92.71
2016-02-05T04:55:04.478Z,92.52
2016-02-05T04:56:04.453Z,92.71
2016-02-05T04:57:04.441Z,92.71
2016-02-05T04:58:04.458Z,92.33
2016-02-05T04:59:04.462Z,92.52
2016-02-05T05:00:04.452Z,92.71
2016-02-05T05:01:04.454Z,92.42
2016-02-05T05:02:04.457Z,92.99
2016-02-05T05:03:04.443Z,93.08
2016-02-05T05:04:04.465Z,93.18
2016-02-05T05:05:04.436Z,92.61
2016-02-05T05:06:04.469Z,92.9
2016-02-05T05:07:04.426Z,92.8
2016-02-05T05:08:04.461Z,92.61
2016-02-05T05:09:04.432Z,92.71
2016-02-05T05:10:04.465Z,93.46
2016-02-05T05:11:04.452Z,93.46
2016-02-05T05:12:04.455Z,93.46
2016-02-05T05:13:04.443Z,92.61
2016-02-05T05:14:04.445Z,93.37
2016-02-05T05:15:04.448Z,92.61
2016-02-05T05:16:04.466Z,93.46
2016-02-05T05:17:04.469Z,93.65
2016-02-05T05:18:04.441Z,93.46
2016-02-05T05:19:04.459Z,92.71
2016-02-05T05:20:04.430Z,93.27
2016-02-05T05:21:04.449Z,93.46
2016-02-05T05:22:04.468Z,93.65
2016-02-05T05:23:04.486Z,92.9
2016-02-05T05:24:04.442Z,93.56
2016-02-05T05:25:04.461Z,92.99
2016-02-05T05:26:04.448Z,92.04
2016-02-05T05:27:04.450Z,91.75
2016-02-05T05:28:04.453Z,92.23
2016-02-05T05:29:04.460Z,91.56
2016-02-05T05:30:04.434Z,92.14
2016-02-05T05:31:04.437Z,91.94
2016-02-05T05:32:04.456Z,91.66
2016-02-05T05:33:04.426Z,91.94
2016-02-05T05:34:04.445Z,91.85
2016-02-05T05:35:04.464Z,91.75
2016-02-05T05:36:04.424Z,92.04
2016-02-05T05:37:04.441Z,91.47
2016-02-05T05:38:04.413Z,91.94
2016-02-05T05:39:04.416Z,91.75
2016-02-05T05:40:04.419Z,91.94
2016-02-05T05:41:04.437Z,92.04
2016-02-05T05:42:04.423Z,92.04
2016-02-05T05:43:04.427Z,91.75
2016-02-05T05:44:04.414Z,91.85
2016-02-05T05:45:04.417Z,92.23
2016-02-05T05:46:04.419Z,92.23
2016-02-05T05:47:04.407Z,91.85
2016-02-05T05:48:04.425Z,91.56
2016-02-05T05:49:04.428Z,91.56
2016-02-05T05:50:04.416Z,91.56
2016-02-05T05:51:04.419Z,92.04
2016-02-05T05:52:04.405Z,91.56
2016-02-05T05:53:04.425Z,91.85
2016-02-05T05:54:04.411Z,91.85
2016-02-05T05:55:04.430Z,91.94
2016-02-05T05:56:04.432Z,91.75
2016-02-05T05:57:04.418Z,91.75
2016-02-05T05:58:04.422Z,91.75
2016-02-05T05:59:04.409Z,91.19
2016-02-05T06:00:04.412Z,91
2016-02-05T06:01:04.399Z,91.19
2016-02-05T06:02:04.434Z,90.9
2016-02-05T06:03:04.436Z,90.81
2016-02-05T06:04:04.423Z,90.81
2016-02-05T06:05:04.411Z,90.71
2016-02-05T06:06:04.397Z,90.71
2016-02-05T06:07:04.416Z,91.19
2016-02-05T06:08:04.403Z,90.9
2016-02-05T06:09:04.407Z,91.28
2016-02-05T06:10:04.409Z,90.9
2016-02-05T06:11:04.428Z,90.52
2016-02-05T06:12:04.430Z,91.09
2016-02-05T06:13:04.401Z,91
2016-02-05T06:14:04.404Z,90.81
2016-02-05T06:15:04.407Z,91
2016-02-05T06:16:04.409Z,90.24
2016-02-05T06:17:04.412Z,90.24
2016-02-05T06:18:04.401Z,90.14
2016-02-05T06:19:04.389Z,89.95
2016-02-05T06:20:04.407Z,90.24
2016-02-05T06:21:04.425Z,89.95
2016-02-05T06:22:04.384Z,90.14
2016-02-05T06:23:04.403Z,89.39
2016-02-05T06:24:04.406Z,90.43
2016-02-05T06:25:04.392Z,89.58
2016-02-05T06:26:04.411Z,89.48
2016-02-05T06:27:04.397Z,89.39
2016-02-05T06:28:04.433Z,89.2
2016-02-05T06:29:04.422Z,89.39
2016-02-05T06:30:04.403Z,89.48
2016-02-05T06:31:04.389Z,89.1
2016-02-05T06:32:04.392Z,89.58
2016-02-05T06:33:04.379Z,88.91
2016-02-05T06:34:04.382Z,88.72
2016-02-05T06:35:04.384Z,88.91
2016-02-05T06:36:04.419Z,88.43
2016-02-05T06:37:04.375Z,88.43
2016-02-05T06:38:04.377Z,87.87
2016-02-05T06:39:04.380Z,87.87
2016-02-05T06:40:04.383Z,87.87
2016-02-05T06:41:04.370Z,87.77
2016-02-05T06:42:04.389Z,87.77
2016-02-05T06:43:04.376Z,87.68
2016-02-05T06:44:04.378Z,87.87
2016-02-05T06:45:04.365Z,87.96
2016-02-05T06:46:04.400Z,87.68
2016-02-05T06:47:04.371Z,87.68
2016-02-05T06:48:04.389Z,88.06
2016-02-05T06:49:04.375Z,87.77
2016-02-05T06:50:04.363Z,87.68
2016-02-05T06:51:04.367Z,87.68
2016-02-05T06:52:04.353Z,87.68
2016-02-05T06:53:04.355Z,87.96
2016-02-05T06:54:04.375Z,87.49
2016-02-05T06:55:04.361Z,88.53
2016-02-05T06:56:04.381Z,88.15
2016-02-05T06:57:04.367Z,88.34
2016-02-05T06:58:04.370Z,88.24
2016-02-05T06:59:04.341Z,88.24
2016-02-05T07:00:04.373Z,88.06
2016-02-05T07:01:04.360Z,87.68
2016-02-05T07:02:04.378Z,87.68
2016-02-05T07:03:04.380Z,87.77
2016-02-05T07:04:04.462Z,88.34
2016-02-05T07:05:04.372Z,88.34
2016-02-05T07:06:04.359Z,87.77
2016-02-05T07:07:04.361Z,87.96
2016-02-05T07:08:04.395Z,87.39
2016-02-05T07:09:04.351Z,87.49
2016-02-05T07:10:04.386Z,87.49
2016-02-05T07:11:04.357Z,87.58
2016-02-05T07:12:04.344Z,87.49
2016-02-05T07:13:04.363Z,86.91
2016-02-05T07:14:04.334Z,86.35
2016-02-05T07:15:04.338Z,86.82
2016-02-05T07:16:04.356Z,86.82
2016-02-05T07:17:04.327Z,86.72
2016-02-05T07:18:04.362Z,86.07
2016-02-05T07:19:04.349Z,86.72
2016-02-05T07:20:04.351Z,86.63
2016-02-05T07:21:04.354Z,86.63
2016-02-05T07:22:04.426Z,86.16
2016-02-05T07:23:04.335Z,86.16
2016-02-05T07:24:04.338Z,86.44
2016-02-05T07:25:04.341Z,85.97
2016-02-05T07:26:04.344Z,85.78
2016-02-05T07:27:04.347Z,85.87
2016-02-05T07:28:04.365Z,85.78
2016-02-05T07:29:04.337Z,85.59
2016-02-05T07:30:04.325Z,85.87
2016-02-05T07:31:04.360Z,85.59
2016-02-05T07:32:04.331Z,85.78
2016-02-05T07:33:04.318Z,86.07
2016-02-05T07:34:04.352Z,85.59
2016-02-05T07:35:04.341Z,85.68
2016-02-05T07:36:04.329Z,85.21
2016-02-05T07:37:04.346Z,85.11
2016-02-05T07:38:04.318Z,85.21
2016-02-05T07:39:04.336Z,85.11
2016-02-05T07:40:04.324Z,85.21
2016-02-05T07:41:04.326Z,85.02
2016-02-05T07:42:04.360Z,85.68
2016-02-05T07:43:04.315Z,85.78
2016-02-05T07:44:04.317Z,85.59
2016-02-05T07:45:04.321Z,85.68
2016-02-05T07:46:04.356Z,85.78
2016-02-05T07:47:04.311Z,85.97
2016-02-05T07:48:04.328Z,85.87
2016-02-05T07:49:04.331Z,85.97
2016-02-05T07:50:04.350Z,86.07
2016-02-05T07:51:04.368Z,85.82
2016-02-05T07:52:04.324Z,85.82
2016-02-05T07:53:04.327Z,86.01
2016-02-05T07:54:04.329Z,85.02
2016-02-05T07:55:04.319Z,85.16
2016-02-05T07:56:04.321Z,84.49
2016-02-05T07:57:04.324Z,84.49
2016-02-05T07:58:04.342Z,84.49
2016-02-05T07:59:04.329Z,83.83
2016-02-05T08:00:04.363Z,84.07
2016-02-05T08:01:04.324Z,83.36
2016-02-05T08:02:04.330Z,83.07
2016-02-05T08:03:04.349Z,83.64
2016-02-05T08:04:04.352Z,83.26
2016-02-05T08:05:04.324Z,82.4
2016-02-05T08:06:04.357Z,81.26
2016-02-05T08:07:04.329Z,80.51
2016-02-05T08:08:04.348Z,80.51
2016-02-05T08:09:04.319Z,80.13
2016-02-05T08:10:04.322Z,79.08
2016-02-05T08:11:04.308Z,79.46
2016-02-05T08:12:04.327Z,79.36
2016-02-05T08:13:04.330Z,79.36
2016-02-05T08:14:04.332Z,79.94
2016-02-05T08:15:04.304Z,81.26
2016-02-05T08:16:04.307Z,82.03
2016-02-05T08:17:04.340Z,81.93
2016-02-05T08:18:04.327Z,82.21
2016-02-05T08:19:04.330Z,81.93
2016-02-05T08:20:04.320Z,82.69
2016-02-05T08:21:04.307Z,82.59
2016-02-05T08:22:04.327Z,82.88
2016-02-05T08:23:04.329Z,83.64
2016-02-05T08:24:04.315Z,83.64
2016-02-05T08:25:04.334Z,83.64
2016-02-05T08:26:04.321Z,84.21
2016-02-05T08:27:04.308Z,83.54
2016-02-05T08:28:04.328Z,83.45
2016-02-05T08:29:04.331Z,83.36
2016-02-05T08:30:04.334Z,83.36
2016-02-05T08:31:04.322Z,82.4
2016-02-05T08:32:04.325Z,82.21
2016-02-05T08:33:04.313Z,82.4
2016-02-05T08:34:04.315Z,82.4
2016-02-05T08:35:04.318Z,82.5
2016-02-05T08:36:04.321Z,81.74
2016-02-05T08:37:04.307Z,81.84
2016-02-05T08:38:04.341Z,81.17
2016-02-05T08:39:04.313Z,81.17
2016-02-05T08:40:04.332Z,81.36
2016-02-05T08:41:04.335Z,81.45
2016-02-05T08:42:04.306Z,80.6
2016-02-05T08:43:04.324Z,80.35
2016-02-05T08:44:04.327Z,79.94
2016-02-05T08:45:04.314Z,79.97
2016-02-05T08:46:04.317Z,80.16
2016-02-05T08:47:04.351Z,80.26
2016-02-05T08:48:04.324Z,79.12
2016-02-05T08:49:04.343Z,79.22
2016-02-05T08:50:04.315Z,79.03
2016-02-05T08:51:04.301Z,79.41
2016-02-05T08:52:04.351Z,79.41
2016-02-05T08:53:04.324Z,79.22
2016-02-05T08:54:04.311Z,79.12
2016-02-05T08:55:04.330Z,79.31
2016-02-05T08:56:04.348Z,79.22
2016-02-05T08:57:04.335Z,78.27
2016-02-05T08:58:04.338Z,77.6
2016-02-05T08:59:04.324Z,76.93
2016-02-05T09:00:04.345Z,76.93
2016-02-05T09:01:04.350Z,76.93
2016-02-05T09:02:04.306Z,77.03
2016-02-05T09:03:04.324Z,77.6
2016-02-05T09:04:04.358Z,77.22
2016-02-05T09:05:04.345Z,77.51
2016-02-05T09:06:04.320Z,77.03
2016-02-05T09:07:04.338Z,76.18
2016-02-05T09:08:04.340Z,76.27
2016-02-05T09:09:04.328Z,76.37
2016-02-05T09:10:04.331Z,76.84
2016-02-05T09:11:04.333Z,75.89
2016-02-05T09:12:04.335Z,75.23
2016-02-05T09:13:04.325Z,75.7
2016-02-05T09:14:04.346Z,75.23
2016-02-05T09:15:04.316Z,75.6
2016-02-05T09:16:04.337Z,76.03
2016-02-05T09:17:04.356Z,75.74
2016-02-05T09:18:04.327Z,75.74
2016-02-05T09:19:04.346Z,75.55
2016-02-05T09:20:04.324Z,76.03
2016-02-05T09:21:04.327Z,75.84
2016-02-05T09:22:04.362Z,75.07
2016-02-05T09:23:04.348Z,74.88
2016-02-05T09:24:04.367Z,75.17
2016-02-05T09:25:04.385Z,74.88
2016-02-05T09:26:04.329Z,74.69
2016-02-05T09:27:04.347Z,74.88
2016-02-05T09:28:04.366Z,74.88
2016-02-05T09:29:04.352Z,75.07
2016-02-05T09:30:04.340Z,75.17
2016-02-05T09:31:04.357Z,75.45
2016-02-05T09:32:04.345Z,74.88
2016-02-05T09:33:04.348Z,74.79
2016-02-05T09:34:04.335Z,74.98
2016-02-05T09:35:04.353Z,74.79
2016-02-05T09:36:04.357Z,74.51
2016-02-05T09:37:04.359Z,73.93
2016-02-05T09:38:04.362Z,74.51
2016-02-05T09:39:04.364Z,74.79
2016-02-05T09:40:04.382Z,74.12
2016-02-05T09:41:04.370Z,74.03
2016-02-05T09:42:04.356Z,74.35
2016-02-05T09:43:04.359Z,73.65
2016-02-05T09:44:04.377Z,72.99
2016-02-05T09:45:04.364Z,73.02
2016-02-05T09:46:04.368Z,73.4
2016-02-05T09:47:04.371Z,73.21
2016-02-05T09:48:04.360Z,73.02
2016-02-05T09:49:04.364Z,73.4
2016-02-05T09:50:04.382Z,73.21
2016-02-05T09:51:04.368Z,73.59
2016-02-05T09:52:04.371Z,73.21
2016-02-05T09:53:04.375Z,72.83
2016-02-05T09:54:04.378Z,73.4
2016-02-05T09:55:04.381Z,72.26
2016-02-05T09:56:04.383Z,72.83
2016-02-05T09:57:04.371Z,73.21
2016-02-05T09:58:04.389Z,73.59
2016-02-05T09:59:04.393Z,73.78
2016-02-05T10:00:04.380Z,73.11
2016-02-05T10:01:04.398Z,72.92
2016-02-05T10:02:04.417Z,72.92
2016-02-05T10:03:04.389Z,73.11
2016-02-05T10:04:04.392Z,73.11
2016-02-05T10:05:04.410Z,72.16
2016-02-05T10:06:04.398Z,72.35
2016-02-05T10:07:04.416Z,72.35
2016-02-05T10:08:04.450Z,72.35
2016-02-05T10:09:04.421Z,72.83
2016-02-05T10:10:04.455Z,72.92
2016-02-05T10:11:04.412Z,72.45
2016-02-05T10:12:04.414Z,71.97
2016-02-05T10:13:04.432Z,72.16
2016-02-05T10:14:04.420Z,72.45
2016-02-05T10:15:04.437Z,71.41
2016-02-05T10:16:04.427Z,72.16
2016-02-05T10:17:04.475Z,72.55
2016-02-05T10:18:04.416Z,72.07
2016-02-05T10:19:04.423Z,72.35
2016-02-05T10:20:04.440Z,71.02
2016-02-05T10:21:04.428Z,70.83
2016-02-05T10:22:04.431Z,70.83
2016-02-05T10:23:04.434Z,70.64
2016-02-05T10:24:04.420Z,71.15
2016-02-05T10:25:04.423Z,71.12
2016-02-05T10:26:04.472Z,71.72
2016-02-05T10:27:04.445Z,70.2
2016-02-05T10:28:04.447Z,71.06
2016-02-05T10:29:04.450Z,70.49
2016-02-05T10:30:04.467Z,71.06
2016-02-05T10:31:04.439Z,71.63
2016-02-05T10:32:04.442Z,71.25
2016-02-05T10:33:04.476Z,71.06
2016-02-05T10:34:04.450Z,70.39
2016-02-05T10:35:04.453Z,70.58
2016-02-05T10:36:04.472Z,70.77
2016-02-05T10:37:04.459Z,69.35
2016-02-05T10:38:04.461Z,70.1
2016-02-05T10:39:04.466Z,69.63
2016-02-05T10:40:04.469Z,69.63
2016-02-05T10:41:04.471Z,69.44
2016-02-05T10:42:04.490Z,69.25
2016-02-05T10:43:04.477Z,69.67
2016-02-05T10:44:04.479Z,68.33
2016-02-05T10:45:04.482Z,68.62
2016-02-05T10:46:04.485Z,68.52
2016-02-05T10:47:04.487Z,68.62
2016-02-05T10:48:04.490Z,68.62
2016-02-05T10:49:04.493Z,68.52
2016-02-05T10:50:04.495Z,68.81
2016-02-05T10:51:04.514Z,68.71
2016-02-05T10:52:04.517Z,68.71
2016-02-05T10:53:04.503Z,68.05
2016-02-05T10:54:04.506Z,66.53
2016-02-05T10:55:04.509Z,67.47
2016-02-05T10:56:04.512Z,67.19
2016-02-05T10:57:04.514Z,67.19
2016-02-05T10:58:04.517Z,66.91
2016-02-05T10:59:04.502Z,67.29
2016-02-05T11:00:04.523Z,67.57
2016-02-05T11:01:04.542Z,67.38
2016-02-05T11:02:04.529Z,66.81
2016-02-05T11:03:04.533Z,66.14
2016-02-05T11:04:04.536Z,67
2016-02-05T11:05:04.539Z,67.13
2016-02-05T11:06:04.541Z,67.13
2016-02-05T11:07:04.575Z,67.22
2016-02-05T11:08:04.544Z,67.61
2016-02-05T11:09:04.546Z,66.85
2016-02-05T11:10:04.549Z,65.7
2016-02-05T11:11:04.552Z,65.32
2016-02-05T11:12:04.556Z,65.13
2016-02-05T11:13:04.558Z,65.23
2016-02-05T11:14:04.561Z,65.13
2016-02-05T11:15:04.580Z,64.28
2016-02-05T11:16:04.597Z,64.65
2016-02-05T11:17:04.587Z,65.03
2016-02-05T11:18:04.604Z,65.61
2016-02-05T11:19:04.578Z,65.99
2016-02-05T11:20:04.597Z,66.27
2016-02-05T11:21:04.599Z,65.8
2016-02-05T11:22:04.602Z,63.92
2016-02-05T11:23:04.604Z,63.35
2016-02-05T11:24:04.608Z,63.92
2016-02-05T11:25:04.611Z,63.26
2016-02-05T11:26:04.614Z,64.21
2016-02-05T11:27:04.616Z,64.12
2016-02-05T11:28:04.603Z,63.64
2016-02-05T11:29:04.637Z,63.73
2016-02-05T11:30:04.624Z,64.78
2016-02-05T11:31:04.627Z,65.26
2016-02-05T11:32:04.647Z,64.4
2016-02-05T11:33:04.666Z,64.12
2016-02-05T11:34:04.652Z,64.21
2016-02-05T11:35:04.671Z,63.73
2016-02-05T11:36:04.657Z,63.45
2016-02-05T11:37:04.682Z,63.26
2016-02-05T11:38:04.651Z,63.17
2016-02-05T11:39:04.670Z,63.73
2016-02-05T11:40:04.690Z,63.92
2016-02-05T11:41:04.676Z,63.45
2016-02-05T11:42:04.679Z,62.88
2016-02-05T11:43:04.681Z,63.73
2016-02-05T11:44:04.700Z,64.21
2016-02-05T11:45:04.687Z,63.35
2016-02-05T11:46:04.706Z,63.54
2016-02-05T11:47:04.708Z,63.92
2016-02-05T11:48:04.711Z,64.69
2016-02-05T11:49:04.713Z,64.97
2016-02-05T11:50:04.716Z,64.21
2016-02-05T11:51:04.703Z,64.87
2016-02-05T11:52:04.722Z,64.59
2016-02-05T11:53:04.724Z,64.21
2016-02-05T11:54:04.727Z,63.73
2016-02-05T11:55:04.729Z,63.54
2016-02-05T11:56:04.732Z,63.54
2016-02-05T11:57:04.736Z,63.73
2016-02-05T11:58:04.738Z,63.73
2016-02-05T11:59:04.741Z,63.07
2016-02-05T12:00:04.744Z,62.62
2016-02-05T12:01:04.761Z,63
2016-02-05T12:02:04.750Z,63.2
2016-02-05T12:03:04.753Z,62.43
2016-02-05T12:04:04.771Z,61.67
2016-02-05T12:05:04.776Z,61.48
2016-02-05T12:06:04.778Z,61.13
2016-02-05T12:07:04.781Z,60.94
2016-02-05T12:08:04.784Z,60.84
2016-02-05T12:09:04.787Z,60.46
2016-02-05T12:10:04.777Z,60.08
2016-02-05T12:11:04.796Z,60.17
2016-02-05T12:12:04.782Z,60.27
2016-02-05T12:13:04.801Z,60.65
2016-02-05T12:14:04.804Z,60.55
2016-02-05T12:15:04.806Z,60.65
2016-02-05T12:16:04.809Z,60.46
2016-02-05T12:17:04.827Z,60.46
2016-02-05T12:18:04.832Z,60.55
2016-02-05T12:19:04.819Z,60.46
2016-02-05T12:20:04.853Z,60.36
2016-02-05T12:21:04.855Z,60.27
2016-02-05T12:22:04.827Z,60.36
2016-02-05T12:23:04.863Z,60.75
2016-02-05T12:24:04.850Z,60.55
2016-02-05T12:25:04.869Z,60.75
2016-02-05T12:26:04.856Z,60.55
2016-02-05T12:27:04.860Z,60.94
2016-02-05T12:28:04.862Z,61.04
2016-02-05T12:29:04.880Z,62.15
2016-02-05T12:30:04.869Z,62.24
2016-02-05T12:31:04.888Z,62.34
2016-02-05T12:32:04.890Z,61.57
2016-02-05T12:33:04.913Z,61.38
2016-02-05T12:34:04.883Z,61.57
2016-02-05T12:35:04.903Z,61
2016-02-05T12:36:04.905Z,61.86
2016-02-05T12:37:04.908Z,61.38
2016-02-05T12:38:04.914Z,62.34
2016-02-05T12:39:04.917Z,61.96
2016-02-05T12:40:04.919Z,61.48
2016-02-05T12:41:04.938Z,61.51
2016-02-05T12:42:04.956Z,60.65
2016-02-05T12:43:04.945Z,60.36
2016-02-05T12:44:04.947Z,60.65
2016-02-05T12:45:04.950Z,60.55
2016-02-05T12:46:04.936Z,60.94
2016-02-05T12:47:04.956Z,60.81
2016-02-05T12:48:04.958Z,61.13
2016-02-05T12:49:04.961Z,60.91
2016-02-05T12:50:04.978Z,60.52
2016-02-05T12:51:04.955Z,61.1
2016-02-05T12:52:04.972Z,61.57
2016-02-05T12:53:04.975Z,61.48
2016-02-05T12:54:04.962Z,62.15
2016-02-05T12:55:04.980Z,62.43